createdAt,value
2019-05-07T00:05:19.070Z,99.9
2019-05-07T00:15:23.186Z,99.9
2019-05-07T00:25:26.631Z,99.9
2019-05-07T00:35:32.533Z,99.9
2019-05-07T00:45:36.002Z,99.4
2019-05-07T00:55:39.434Z,99.9
2019-05-07T01:05:43.431Z,99.1
2019-05-07T01:15:46.862Z,99.9
2019-05-07T01:25:52.882Z,99.9
2019-05-07T01:35:56.369Z,99.9
2019-05-07T01:45:59.791Z,99.5
2019-05-07T01:56:03.587Z,99.9
2019-05-07T02:06:07.027Z,99.9
2019-05-07T02:16:12.559Z,99.9
2019-05-07T02:26:15.981Z,99.9
2019-05-07T02:36:19.433Z,99.9
2019-05-07T02:46:35.676Z,99.9
2019-05-07T02:56:43.559Z,99.9
2019-05-07T03:06:47.108Z,99.9
2019-05-07T03:16:54.003Z,99.9
2019-05-07T03:26:57.581Z,99.9
2019-05-07T03:37:06.753Z,99.9
2019-05-07T03:47:13.445Z,99.9
2019-05-07T03:57:17.451Z,99.9
2019-05-07T04:07:23.621Z,99.9
2019-05-07T04:17:27.513Z,99.9
2019-05-07T04:27:33.523Z,99.9
2019-05-07T04:37:36.955Z,99.9
2019-05-07T04:47:47.900Z,99.9
2019-05-07T04:57:53.597Z,99.9
2019-05-07T05:07:57.091Z,99.9
2019-05-07T05:18:02.864Z,99.9
2019-05-07T05:28:06.314Z,99.9
2019-05-07T05:38:09.776Z,99.9
2019-05-07T05:48:15.919Z,99.9
2019-05-07T05:58:19.327Z,93.6
2019-05-07T06:08:24.196Z,85.4
2019-05-07T06:18:27.654Z,88.7
2019-05-07T06:28:33.223Z,86.1
2019-05-07T06:38:36.658Z,87.1
2019-05-07T06:48:46.406Z,87.9
2019-05-07T06:58:49.910Z,91.7
2019-05-07T07:08:55.972Z,75
2019-05-07T07:18:59.450Z,38.8
2019-05-07T07:29:02.881Z,73.6
2019-05-07T07:39:06.339Z,80.5
2019-05-07T07:49:15.200Z,81.9
2019-05-07T07:59:18.877Z,69.7
2019-05-07T08:09:25.974Z,71
2019-05-07T08:19:29.440Z,61.8
2019-05-07T08:29:32.956Z,62.1
2019-05-07T08:39:36.405Z,58.4
2019-05-07T08:49:43.439Z,53.4
2019-05-07T09:00:02.134Z,59.2
2019-05-07T09:10:08.208Z,56
2019-05-07T09:20:12.764Z,52
2019-05-07T09:30:16.244Z,56.9
2019-05-07T09:40:21.836Z,49.3
2019-05-07T09:50:25.248Z,49.6
2019-05-07T10:00:28.693Z,49.1
2019-05-07T10:10:33.116Z,49.5
2019-05-07T10:20:36.532Z,47
2019-05-07T10:30:39.983Z,47.2
2019-05-07T10:40:43.411Z,47.5
2019-05-07T10:50:46.838Z,42.4
2019-05-07T11:00:52.479Z,42.4
2019-05-07T11:10:55.884Z,45.7
2019-05-07T11:20:59.305Z,42.4
2019-05-07T11:31:02.764Z,44.2
2019-05-07T11:41:06.221Z,40.5
2019-05-07T11:51:09.686Z,40.7
2019-05-07T12:01:13.139Z,44.1
2019-05-07T12:11:16.601Z,41
2019-05-07T12:21:24.384Z,39.2
2019-05-07T12:31:27.884Z,44.2
2019-05-07T12:41:34.393Z,41.1
2019-05-07T12:51:38.284Z,43.9
2019-05-07T13:01:42.383Z,42
2019-05-07T13:11:45.833Z,40
2019-05-07T13:21:50.208Z,40.9
2019-05-07T13:31:54.532Z,39.2
2019-05-07T13:41:57.998Z,40.5
2019-05-07T13:52:03.985Z,38
2019-05-07T14:02:07.464Z,37.6
2019-05-07T14:12:12.500Z,40.8
2019-05-07T14:22:19.422Z,35.3
2019-05-07T14:32:22.888Z,35.3
2019-05-07T14:42:26.318Z,37.6
2019-05-07T14:52:36.071Z,38.4
2019-05-07T15:02:42.326Z,35.2
2019-05-07T15:12:45.824Z,35.8
2019-05-07T15:22:52.561Z,35.4
2019-05-07T15:32:56.221Z,36.3
2019-05-07T15:43:02.333Z,35.6
2019-05-07T15:53:05.817Z,36.5
2019-05-07T16:03:09.260Z,38.3
2019-05-07T16:13:15.466Z,36.2
2019-05-07T16:23:18.904Z,35.8
2019-05-07T16:33:22.351Z,36
2019-05-07T16:43:25.764Z,36.5
2019-05-07T16:53:33.036Z,36.4
2019-05-07T17:03:38.805Z,36.8
2019-05-07T17:13:42.631Z,37.7
2019-05-07T17:23:46.096Z,36.7
2019-05-07T17:33:51.769Z,38.9
2019-05-07T17:43:55.240Z,41.6
2019-05-07T17:54:00.434Z,37.5
2019-05-07T18:04:03.883Z,38.3
2019-05-07T18:14:07.354Z,40
2019-05-07T18:24:16.945Z,40.9
2019-05-07T18:34:20.429Z,41.4
2019-05-07T18:44:23.872Z,43.2
2019-05-07T18:54:31.715Z,47.3
2019-05-07T19:04:35.319Z,47
2019-05-07T19:14:38.761Z,50.5
2019-05-07T19:24:48.287Z,48.4
2019-05-07T19:34:53.580Z,48.7
2019-05-07T19:44:57.028Z,52.3
2019-05-07T19:55:04.975Z,53.7
2019-05-07T20:05:08.450Z,51.6
2019-05-07T20:15:11.893Z,53.6
2019-05-07T20:25:19.524Z,54.4
2019-05-07T20:35:23.016Z,54.1
2019-05-07T20:45:26.438Z,51.9
2019-05-07T20:55:34.123Z,54.3
2019-05-07T21:05:37.660Z,54.9
2019-05-07T21:15:42.089Z,58.5
2019-05-07T21:25:46.242Z,59.1
2019-05-07T21:35:52.547Z,59.4
2019-05-07T21:45:56.057Z,64.5
2019-05-07T21:56:05.332Z,64.3
2019-05-07T22:06:12.794Z,66.4
2019-05-07T22:16:16.419Z,65.9
2019-05-07T22:26:26.545Z,70.7
2019-05-07T22:36:32.826Z,75.6
2019-05-07T22:46:36.286Z,72.9
2019-05-07T22:56:42.102Z,73.3
2019-05-07T23:06:45.578Z,74.7
2019-05-07T23:16:49.004Z,73.3
2019-05-07T23:26:54.013Z,76
2019-05-07T23:36:57.466Z,73.7
2019-05-07T23:47:02.947Z,79.9
2019-05-07T23:57:14.826Z,83
